TimeCDT,TemperatureF,Dew PointF,Humidity,Sea Level PressureIn,VisibilityMPH,Wind Direction,Wind SpeedMPH,Gust SpeedMPH,PrecipitationIn,Events,Conditions,WindDirDegrees,DateUTC
12:15 AM,21.2,12.2,68,30.25,10.0,South,3.5,-,N/A,,Scattered Clouds,170,2013-03-14 05:15:00
12:35 AM,21.2,14.0,74,30.25,10.0,SSW,4.6,-,N/A,,Mostly Cloudy,200,2013-03-14 05:35:00
12:55 AM,21.2,14.0,74,30.24,10.0,South,4.6,-,N/A,,Overcast,180,2013-03-14 05:55:00
1:15 AM,21.2,14.0,74,30.23,10.0,SSE,4.6,-,N/A,,Overcast,150,2013-03-14 06:15:00
1:35 AM,21.2,14.0,74,30.23,10.0,SSE,3.5,-,N/A,,Mostly Cloudy,150,2013-03-14 06:35:00
1:55 AM,19.4,14.0,80,30.23,10.0,SE,4.6,-,N/A,,Mostly Cloudy,140,2013-03-14 06:55:00
2:15 AM,21.2,15.8,80,30.23,10.0,South,5.8,-,N/A,,Overcast,170,2013-03-14 07:15:00
2:35 AM,21.2,15.8,80,30.22,10.0,SSE,4.6,-,N/A,,Overcast,160,2013-03-14 07:35:00
2:55 AM,21.2,15.8,80,30.21,10.0,SSE,4.6,-,N/A,,Overcast,160,2013-03-14 07:55:00
3:15 AM,21.2,15.8,80,30.20,10.0,SSE,4.6,-,N/A,,Overcast,150,2013-03-14 08:15:00
3:35 AM,23.0,15.8,74,30.19,10.0,SE,4.6,-,N/A,,Overcast,140,2013-03-14 08:35:00
3:55 AM,23.0,17.6,80,30.19,3.0,SSE,4.6,-,N/A,Snow,Light Snow,160,2013-03-14 08:55:00
4:15 AM,23.0,17.6,80,30.19,10.0,SSE,4.6,-,N/A,Snow,Light Snow,160,2013-03-14 09:15:00
4:35 AM,23.0,17.6,80,30.19,3.0,SSE,4.6,-,N/A,Snow,Light Snow,160,2013-03-14 09:35:00
4:55 AM,21.2,19.4,93,30.19,3.0,South,5.8,-,N/A,Snow,Light Snow,180,2013-03-14 09:55:00
5:15 AM,21.2,19.4,93,30.17,1.0,SSE,5.8,-,N/A,Snow,Light Snow,150,2013-03-14 10:15:00
5:35 AM,21.2,21.2,100,30.17,1.0,South,8.1,-,N/A,Snow,Light Snow,170,2013-03-14 10:35:00
5:55 AM,21.2,21.2,100,30.16,1.2,SSE,5.8,-,N/A,Snow,Light Snow,150,2013-03-14 10:55:00
6:15 AM,21.2,21.2,100,30.15,1.0,SSE,8.1,-,N/A,Snow,Snow,150,2013-03-14 11:15:00
6:35 AM,23.0,21.2,93,30.14,1.5,SSE,5.8,-,N/A,Snow,Light Snow,150,2013-03-14 11:35:00
6:55 AM,23.0,21.2,93,30.14,1.8,SE,5.8,-,N/A,Snow,Light Snow,140,2013-03-14 11:55:00
7:15 AM,23.0,23.0,100,30.14,2.5,SSE,4.6,-,N/A,Snow,Light Snow,150,2013-03-14 12:15:00
7:35 AM,23.0,23.0,100,30.14,2.5,SE,5.8,-,N/A,Snow,Light Snow,130,2013-03-14 12:35:00
7:55 AM,23.0,23.0,100,30.14,2.5,SE,6.9,-,N/A,Snow,Light Snow,130,2013-03-14 12:55:00
8:15 AM,23.0,23.0,100,30.14,1.2,ESE,5.8,-,N/A,Snow,Light Snow,120,2013-03-14 13:15:00
8:35 AM,23.0,23.0,100,30.14,7.0,ESE,5.8,-,N/A,Snow,Light Snow,110,2013-03-14 13:35:00
8:55 AM,23.0,23.0,100,30.14,7.0,ESE,6.9,-,N/A,,Overcast,110,2013-03-14 13:55:00
9:15 AM,24.8,23.0,93,30.14,10.0,ESE,5.8,-,N/A,,Overcast,110,2013-03-14 14:15:00
9:35 AM,24.8,23.0,93,30.14,10.0,ESE,5.8,-,N/A,,Overcast,110,2013-03-14 14:35:00
9:55 AM,26.6,23.0,86,30.14,10.0,ESE,5.8,-,N/A,,Overcast,120,2013-03-14 14:55:00
10:15 AM,26.6,23.0,86,30.15,10.0,SE,5.8,-,N/A,,Overcast,130,2013-03-14 15:15:00
10:35 AM,26.6,23.0,86,30.13,10.0,ESE,8.1,-,N/A,,Overcast,120,2013-03-14 15:35:00
10:55 AM,28.4,23.0,80,30.11,10.0,ESE,10.4,-,N/A,,Overcast,120,2013-03-14 15:55:00
11:15 AM,28.4,23.0,80,30.13,10.0,SE,8.1,-,N/A,,Overcast,130,2013-03-14 16:15:00
11:35 AM,28.4,23.0,80,30.13,10.0,SSE,4.6,-,N/A,,Overcast,150,2013-03-14 16:35:00
11:55 AM,30.2,24.8,80,30.13,10.0,SSE,8.1,-,N/A,,Overcast,160,2013-03-14 16:55:00
12:15 PM,30.2,24.8,80,30.11,10.0,SSE,8.1,-,N/A,,Overcast,150,2013-03-14 17:15:00
12:35 PM,32.0,24.8,75,30.11,10.0,South,8.1,-,0.03,,Mostly Cloudy,170,2013-03-14 17:35:00
12:55 PM,32.0,26.6,80,30.12,7.0,South,6.9,-,0.05,,Scattered Clouds,190,2013-03-14 17:55:00
1:15 PM,32.0,26.6,80,30.13,10.0,South,6.9,-,0.01,,Clear,180,2013-03-14 18:15:00
1:35 PM,32.0,26.6,80,30.13,10.0,Calm,Calm,-,0.01,,Clear,0,2013-03-14 18:35:00
1:55 PM,32.0,26.6,80,30.12,10.0,Calm,Calm,-,0.01,,Clear,0,2013-03-14 18:55:00
2:15 PM,32.0,26.6,80,30.11,10.0,East,3.5,-,N/A,,Clear,90,2013-03-14 19:15:00
2:35 PM,32.0,26.6,80,30.09,10.0,ESE,5.8,-,N/A,,Clear,110,2013-03-14 19:35:00
2:55 PM,32.0,26.6,80,30.09,10.0,ESE,4.6,-,N/A,,Clear,120,2013-03-14 19:55:00
3:15 PM,33.8,26.6,75,30.10,10.0,East,3.5,-,N/A,,Clear,100,2013-03-14 20:15:00
3:35 PM,33.8,26.6,75,30.09,10.0,ESE,4.6,-,N/A,,Clear,120,2013-03-14 20:35:00
3:55 PM,33.8,26.6,75,30.09,10.0,SSE,4.6,-,N/A,,Clear,160,2013-03-14 20:55:00
4:15 PM,33.8,26.6,75,30.09,10.0,South,4.6,-,N/A,,Clear,170,2013-03-14 21:15:00
4:35 PM,33.8,26.6,75,30.11,10.0,South,4.6,-,N/A,,Clear,180,2013-03-14 21:35:00
4:55 PM,33.8,26.6,75,30.10,10.0,South,5.8,-,N/A,,Clear,180,2013-03-14 21:55:00
5:15 PM,33.8,26.6,75,30.09,10.0,SSE,4.6,-,N/A,,Clear,160,2013-03-14 22:15:00
5:35 PM,33.8,26.6,75,30.07,10.0,South,6.9,-,N/A,,Clear,170,2013-03-14 22:35:00
5:55 PM,33.8,26.6,75,30.07,10.0,South,6.9,-,N/A,,Clear,170,2013-03-14 22:55:00
6:15 PM,33.8,26.6,75,30.07,10.0,South,5.8,-,N/A,,Clear,180,2013-03-14 23:15:00
6:35 PM,33.8,26.6,75,30.07,10.0,South,6.9,-,N/A,,Clear,190,2013-03-14 23:35:00
6:55 PM,32.0,26.6,80,30.07,10.0,SSW,3.5,-,N/A,,Clear,200,2013-03-14 23:55:00
7:15 PM,32.0,26.6,80,30.07,10.0,SSW,4.6,-,N/A,,Clear,200,2013-03-15 00:15:00
7:35 PM,32.0,26.6,80,30.06,10.0,SSW,3.5,-,N/A,,Clear,210,2013-03-15 00:35:00
7:55 PM,32.0,26.6,80,30.05,10.0,SSW,4.6,-,N/A,,Clear,200,2013-03-15 00:55:00
8:15 PM,32.0,26.6,80,30.05,10.0,SSW,4.6,-,N/A,,Clear,210,2013-03-15 01:15:00
8:35 PM,32.0,26.6,80,30.04,10.0,SSW,5.8,-,N/A,,Clear,210,2013-03-15 01:35:00
8:55 PM,32.0,26.6,80,30.03,10.0,SSW,6.9,-,N/A,,Clear,210,2013-03-15 01:55:00
9:15 PM,32.0,26.6,80,30.03,10.0,SSW,6.9,-,N/A,,Clear,210,2013-03-15 02:15:00
9:35 PM,32.0,26.6,80,30.02,10.0,SSW,8.1,-,N/A,,Clear,210,2013-03-15 02:35:00
9:55 PM,30.2,26.6,86,30.01,10.0,SW,6.9,-,N/A,,Clear,220,2013-03-15 02:55:00
10:15 PM,30.2,26.6,86,30.01,10.0,SW,6.9,-,N/A,,Clear,220,2013-03-15 03:15:00
10:35 PM,30.2,24.8,80,30.02,10.0,WSW,4.6,-,N/A,,Clear,240,2013-03-15 03:35:00
10:55 PM,28.4,24.8,86,30.02,10.0,Calm,Calm,-,N/A,,Clear,0,2013-03-15 03:55:00
11:15 PM,28.4,24.8,86,30.02,7.0,Calm,Calm,-,N/A,,Clear,0,2013-03-15 04:15:00
11:35 PM,28.4,24.8,86,30.02,7.0,Calm,Calm,-,N/A,,Clear,0,2013-03-15 04:35:00
11:55 PM,28.4,26.6,93,30.01,7.0,Calm,Calm,-,N/A,,Clear,0,2013-03-15 04:55:00